Details From MUCL - Vilo Acuna Intl
To MUCF - Jaime Gonzalez
Flight Number -
Tags Generated
Created
Modified
Stats Distance 71 nm / 131 km
Max Altitude 0 ft / 0 m
Waypoints 2
Social Downloads 4
Likes 0
Share VATSIM

Download

Looking for another format? Having issues loading an existing format? Contact us
Advertisement - Login to hide

Notes

Generated

Route

MUCL MUCF

ID Type Via Altitude Latitude Longitude Leg Dist Tot Dist Heading (true) Name
O MUCL APT - 0 ft / 0 m 21.62241˚ -81.55905˚ - 0 nm - -
O MUCF APT - 0 ft / 0 m 22.13943˚ -80.41751˚ 70 nm 70 nm 64° / 64° -

Altitude Profile

Advertisement - Login to hide

MUCL

Details ICAO MUCL (CYO)
Name VILO ACUNA INTL
Region Cuba
Timezone America/Havana (UTC-5.0)
Stats Elevation 10 ft / 3 m (AMSL)
Location 21.616452° -81.546000°
Runways 1
Magnetic Variation 5.233° W

METAR

MUCL 121451Z 35008KT 320V020 9000 FEW020 22/14 Q1020

Decode

TAF

Not found

Departure Runways

ID Width Length Bearing (true) Bearing (mag) Surface Threshold Offset Overrun Length
12 148 ft / 45 m 9,868 ft / 3,008 m 116.16° 121.39° Asphalt 0 ft / 0 m 197 ft / 60 m
30 148 ft / 45 m 9,868 ft / 3,008 m 296.17° 301.40° Asphalt 0 ft / 0 m 197 ft / 60 m

MUCF

Details ICAO MUCF (CFG)
Name JAIME GONZALEZ
Region Cuba
Timezone America/Havana (UTC-5.0)
Stats Elevation 102 ft / 31 m (AMSL)
Location 22.149850° -80.414310°
Runways 1
Magnetic Variation 6.009° W

METAR

MUCF 121458Z AUTO 01012KT 21/14 Q1020

Decode

TAF

Not found

Destination Runways

ID Width Length Bearing (true) Bearing (mag) Surface Threshold Offset Overrun Length
02 148 ft / 45 m 7,908 ft / 2,410 m 15.87° 21.88° Asphalt 0 ft / 0 m 120 ft / 37 m
20 148 ft / 45 m 7,908 ft / 2,410 m 195.87° 201.88° Asphalt 0 ft / 0 m 0 ft / 0 m